createdAt,value
2018-12-29T00:02:25.774Z,79.17
2018-12-29T00:04:52.978Z,79.37
2018-12-29T00:07:20.428Z,79.63
2018-12-29T00:09:48.008Z,79.90
2018-12-29T00:12:15.201Z,80.15
2018-12-29T00:14:42.464Z,79.97
2018-12-29T00:17:09.617Z,79.41
2018-12-29T00:19:36.779Z,79.75
2018-12-29T00:22:04.073Z,79.60
2018-12-29T00:24:31.277Z,79.27
2018-12-29T00:26:58.455Z,79.14
2018-12-29T00:29:25.697Z,79.32
2018-12-29T00:31:52.846Z,79.65
2018-12-29T00:34:20.039Z,79.48
2018-12-29T00:36:47.430Z,79.75
2018-12-29T00:39:14.608Z,80.25
2018-12-29T00:41:41.666Z,80.22
2018-12-29T00:44:08.875Z,79.70
2018-12-29T00:46:36.036Z,79.86
2018-12-29T00:49:03.201Z,80.50
2018-12-29T00:51:30.695Z,80.69
2018-12-29T00:53:57.889Z,80.76
2018-12-29T00:56:25.045Z,81.08
2018-12-29T00:58:52.259Z,81.33
2018-12-29T01:01:19.407Z,81.57
2018-12-29T01:03:46.629Z,81.35
2018-12-29T01:06:14.153Z,80.83
2018-12-29T01:08:41.313Z,80.91
2018-12-29T01:11:08.813Z,80.70
2018-12-29T01:13:36.279Z,80.35
2018-12-29T01:16:03.363Z,79.66
2018-12-29T01:18:30.569Z,78.98
2018-12-29T01:20:57.681Z,79.02
2018-12-29T01:23:24.736Z,79.25
2018-12-29T01:25:52.486Z,79.75
2018-12-29T01:28:20.535Z,79.67
2018-12-29T01:30:47.775Z,79.89
2018-12-29T01:33:14.847Z,80.38
2018-12-29T01:35:41.936Z,80.53
2018-12-29T01:38:09.388Z,81.02
2018-12-29T01:40:36.541Z,79.99
2018-12-29T01:43:03.770Z,80.12
2018-12-29T01:45:30.965Z,80.36
2018-12-29T01:47:58.003Z,80.32
2018-12-29T01:50:25.207Z,80.51
2018-12-29T01:52:52.383Z,80.35
2018-12-29T01:55:19.539Z,80.70
2018-12-29T01:57:46.750Z,80.99
2018-12-29T02:00:13.804Z,80.90
2018-12-29T02:02:41.021Z,80.48
2018-12-29T02:05:11.958Z,80.17
2018-12-29T02:07:39.129Z,80.27
2018-12-29T02:10:06.223Z,80.51
2018-12-29T02:12:33.736Z,80.22
2018-12-29T02:15:00.912Z,79.91
2018-12-29T02:17:28.089Z,79.94
2018-12-29T02:19:55.305Z,79.97
2018-12-29T02:22:22.441Z,79.93
2018-12-29T02:24:49.617Z,79.58
2018-12-29T02:27:16.790Z,79.59
2018-12-29T02:29:43.999Z,79.33
2018-12-29T02:32:11.154Z,79.03
2018-12-29T02:34:38.359Z,79.61
2018-12-29T02:37:05.518Z,79.51
2018-12-29T02:39:32.697Z,79.77
2018-12-29T02:42:00.086Z,80.15
2018-12-29T02:44:27.511Z,80.37
2018-12-29T02:46:54.570Z,80.53
2018-12-29T02:49:21.826Z,80.71
2018-12-29T02:51:49.015Z,80.53
2018-12-29T02:54:16.212Z,79.93
2018-12-29T02:56:43.419Z,80.46
2018-12-29T02:59:10.609Z,80.72
2018-12-29T03:01:37.771Z,80.91
2018-12-29T03:04:04.951Z,81.14
2018-12-29T03:06:32.159Z,80.89
2018-12-29T03:08:59.372Z,80.64
2018-12-29T03:11:26.557Z,80.69
2018-12-29T03:13:53.719Z,80.63
2018-12-29T03:16:20.935Z,80.22
2018-12-29T03:18:48.114Z,79.94
2018-12-29T03:21:16.177Z,79.90
2018-12-29T03:23:43.247Z,79.05
2018-12-29T03:26:10.453Z,79.01
2018-12-29T03:28:37.504Z,78.99
2018-12-29T03:31:04.685Z,78.66
2018-12-29T03:33:32.131Z,78.95
2018-12-29T03:35:59.187Z,78.90
2018-12-29T03:38:26.339Z,79.57
2018-12-29T03:40:53.649Z,79.96
2018-12-29T03:43:20.810Z,79.94
2018-12-29T03:45:49.212Z,79.95
2018-12-29T03:48:16.711Z,79.69
2018-12-29T03:50:43.770Z,79.83
2018-12-29T03:53:11.614Z,79.99
2018-12-29T03:55:39.330Z,79.86
2018-12-29T03:58:06.484Z,79.87
2018-12-29T04:00:33.946Z,79.61
2018-12-29T04:03:01.157Z,79.16
2018-12-29T04:05:28.238Z,79.19
2018-12-29T04:07:55.404Z,79.09
2018-12-29T04:10:22.847Z,78.88
2018-12-29T04:12:53.504Z,78.18
2018-12-29T04:15:20.871Z,78.16
2018-12-29T04:17:47.985Z,78.51
2018-12-29T04:20:15.157Z,78.58
2018-12-29T04:22:42.345Z,78.36
2018-12-29T04:25:09.641Z,78.45
2018-12-29T04:27:36.804Z,78.23
2018-12-29T04:30:04.024Z,78.61
2018-12-29T04:32:31.277Z,78.77
2018-12-29T04:34:58.448Z,79.00
2018-12-29T04:37:25.595Z,79.13
2018-12-29T04:39:52.822Z,78.61
2018-12-29T04:42:19.979Z,78.20
2018-12-29T04:44:47.180Z,78.41
2018-12-29T04:47:14.379Z,78.79
2018-12-29T04:49:41.516Z,78.32
2018-12-29T04:52:10.463Z,78.59
2018-12-29T04:54:37.661Z,79.13
2018-12-29T04:57:04.709Z,79.40
2018-12-29T04:59:31.888Z,79.75
2018-12-29T05:01:59.066Z,79.77
2018-12-29T05:04:26.218Z,80.11
2018-12-29T05:06:53.367Z,80.32
2018-12-29T05:15:00.202Z,80.08
2018-12-29T05:17:27.380Z,80.27
2018-12-29T05:19:54.531Z,80.59
2018-12-29T05:22:21.817Z,81.03
2018-12-29T05:24:49.016Z,81.47
2018-12-29T05:27:16.218Z,81.63
2018-12-29T05:29:43.464Z,81.07
2018-12-29T05:32:51.442Z,81.44
2018-12-29T05:35:18.661Z,82.03
2018-12-29T05:37:45.834Z,82.14
2018-12-29T05:45:54.892Z,82.49
2018-12-29T05:48:22.074Z,82.40
2018-12-29T05:50:49.287Z,82.62
2018-12-29T05:53:35.955Z,82.66
2018-12-29T05:59:36.760Z,82.14
2018-12-29T06:02:03.947Z,82.03
2018-12-29T06:04:31.150Z,81.90
2018-12-29T06:07:17.812Z,81.97
2018-12-29T06:10:16.911Z,81.96
2018-12-29T06:12:45.354Z,82.28
2018-12-29T06:15:19.832Z,82.24
2018-12-29T06:17:46.999Z,82.49
2018-12-29T06:20:33.724Z,82.78
2018-12-29T06:28:54.603Z,82.15
2018-12-29T06:31:21.724Z,82.05
2018-12-29T06:33:48.909Z,82.03
2018-12-29T06:36:15.997Z,82.21
2018-12-29T06:38:43.183Z,82.02
2018-12-29T06:41:10.374Z,81.83
2018-12-29T06:43:57.070Z,81.76
2018-12-29T06:46:43.709Z,81.98
2018-12-29T06:49:10.887Z,82.18
2018-12-29T06:51:39.193Z,81.18
2018-12-29T06:54:16.606Z,81.18
2018-12-29T06:56:43.780Z,81.43
2018-12-29T07:02:29.614Z,80.94
2018-12-29T07:04:57.146Z,81.00
2018-12-29T07:07:43.832Z,81.53
2018-12-29T07:10:11.364Z,81.78
2018-12-29T07:12:38.635Z,81.70
2018-12-29T07:18:20.175Z,81.58
2018-12-29T07:20:47.267Z,81.49
2018-12-29T07:26:15.596Z,81.84
2018-12-29T07:28:42.725Z,81.65
2018-12-29T07:31:10.294Z,81.28
2018-12-29T07:36:15.964Z,80.60
2018-12-29T07:39:03.683Z,80.49
2018-12-29T07:41:30.876Z,80.77
2018-12-29T07:43:58.088Z,80.66
2018-12-29T07:46:25.546Z,80.47
2018-12-29T07:52:13.343Z,80.61
2018-12-29T07:54:40.428Z,80.28
2018-12-29T07:57:07.630Z,79.87
2018-12-29T07:59:34.800Z,80.47
2018-12-29T08:02:01.990Z,80.96
2018-12-29T08:04:48.763Z,80.88
2018-12-29T08:07:16.251Z,80.77
2018-12-29T08:10:24.355Z,81.23
2018-12-29T08:16:10.022Z,81.40
2018-12-29T08:21:38.210Z,80.90
2018-12-29T08:24:24.927Z,80.52
2018-12-29T08:26:52.168Z,80.28
2018-12-29T08:35:59.953Z,81.45
2018-12-29T08:38:27.123Z,81.69
2018-12-29T08:40:54.310Z,80.95
2018-12-29T08:43:21.504Z,80.51
2018-12-29T08:45:48.695Z,79.99
2018-12-29T08:48:35.366Z,80.26
2018-12-29T08:54:36.171Z,81.53
2018-12-29T08:57:23.045Z,81.58
2018-12-29T08:59:50.284Z,81.34
2018-12-29T09:08:58.834Z,79.26
2018-12-29T09:11:26.048Z,78.58
2018-12-29T09:16:54.549Z,78.64
2018-12-29T09:19:27.189Z,79.01
2018-12-29T09:22:00.292Z,78.71
2018-12-29T09:24:28.013Z,78.56
2018-12-29T09:26:55.191Z,78.37
2018-12-29T09:29:41.782Z,78.33
2018-12-29T09:38:09.139Z,77.33
2018-12-29T09:40:36.327Z,76.09
2018-12-29T09:43:03.964Z,76.09
2018-12-29T09:45:31.055Z,77.11
2018-12-29T09:51:51.386Z,77.50
2018-12-29T09:54:18.588Z,77.75
2018-12-29T09:56:45.751Z,77.44
2018-12-29T09:59:53.809Z,77.54
2018-12-29T10:02:21.040Z,77.46
2018-12-29T10:04:48.250Z,77.34
2018-12-29T10:07:15.839Z,77.67
2018-12-29T10:09:43.086Z,77.67
2018-12-29T10:12:10.341Z,76.09
2018-12-29T10:15:18.722Z,76.50
2018-12-29T10:17:46.126Z,76.36
2018-12-29T10:20:13.679Z,76.37
2018-12-29T10:22:40.875Z,76.37
2018-12-29T10:25:08.078Z,76.32
2018-12-29T10:27:47.497Z,76.17
2018-12-29T10:30:14.674Z,76.02
2018-12-29T10:33:01.492Z,75.45
2018-12-29T10:35:30.487Z,75.61
2018-12-29T10:37:57.668Z,75.89
2018-12-29T10:40:56.651Z,75.37
2018-12-29T10:43:23.832Z,75.19
2018-12-29T10:46:10.793Z,74.92
2018-12-29T10:48:37.983Z,74.50
2018-12-29T10:54:06.187Z,74.96
2018-12-29T10:56:33.817Z,74.55
2018-12-29T10:59:01.306Z,74.40
2018-12-29T11:01:30.734Z,74.96
2018-12-29T11:03:57.918Z,75.09
2018-12-29T11:09:26.597Z,74.27
2018-12-29T11:11:53.849Z,74.29
2018-12-29T11:14:40.535Z,73.90
2018-12-29T11:17:07.741Z,74.22
2018-12-29T11:19:34.962Z,74.60
2018-12-29T11:22:02.196Z,74.22
2018-12-29T11:24:31.318Z,73.43
2018-12-29T11:27:18.165Z,73.62
2018-12-29T11:29:45.353Z,74.55
2018-12-29T11:32:12.642Z,74.59
2018-12-29T11:35:20.698Z,75.30
2018-12-29T11:37:47.908Z,75.38
2018-12-29T11:40:15.105Z,75.53
2018-12-29T11:45:20.530Z,74.63
2018-12-29T11:47:50.022Z,74.85
2018-12-29T11:50:26.442Z,75.50
2018-12-29T11:53:06.374Z,74.95
2018-12-29T11:55:33.630Z,74.55
2018-12-29T11:58:08.530Z,74.19
2018-12-29T12:03:37.655Z,74.40
2018-12-29T12:06:04.787Z,74.67
2018-12-29T12:08:32.015Z,74.30
2018-12-29T12:10:59.575Z,73.48
2018-12-29T12:13:26.789Z,72.65
2018-12-29T12:18:34.032Z,73.45
2018-12-29T12:21:42.205Z,74.06
2018-12-29T12:24:28.930Z,74.38
2018-12-29T12:26:56.116Z,74.67
2018-12-29T12:29:55.083Z,74.12
2018-12-29T12:32:22.270Z,73.00
2018-12-29T12:34:57.620Z,73.46
2018-12-29T12:37:30.680Z,73.82
2018-12-29T12:40:06.241Z,74.33
2018-12-29T12:42:33.468Z,74.05
2018-12-29T12:48:19.675Z,73.56
2018-12-29T12:50:47.110Z,73.18
2018-12-29T12:53:14.279Z,73.30
2018-12-29T12:55:53.148Z,73.21
2018-12-29T12:59:09.281Z,73.05
2018-12-29T13:01:36.512Z,73.10
2018-12-29T13:04:23.159Z,72.79
2018-12-29T13:06:50.424Z,72.04
2018-12-29T13:09:17.591Z,71.71
2018-12-29T13:12:04.295Z,71.59
2018-12-29T13:20:32.313Z,72.58
2018-12-29T13:22:59.483Z,71.96
2018-12-29T13:25:26.722Z,73.01
2018-12-29T13:28:13.668Z,73.36
2018-12-29T13:31:00.347Z,73.70
2018-12-29T13:33:27.575Z,73.84
2018-12-29T13:38:53.855Z,73.79
2018-12-29T13:41:21.063Z,74.50
2018-12-29T13:46:49.580Z,76.71
2018-12-29T13:52:17.955Z,76.64
2018-12-29T13:54:45.050Z,76.56
2018-12-29T13:57:12.573Z,77.22
2018-12-29T13:59:39.708Z,77.86
2018-12-29T14:02:06.877Z,78.13
2018-12-29T14:04:34.045Z,78.06
2018-12-29T14:10:02.006Z,78.88
2018-12-29T14:12:30.981Z,78.64
2018-12-29T14:17:57.489Z,77.84
2018-12-29T14:20:24.701Z,78.11
2018-12-29T14:22:51.901Z,78.26
2018-12-29T14:25:19.133Z,78.37
2018-12-29T14:27:46.291Z,78.73
2018-12-29T14:30:13.850Z,78.79
2018-12-29T14:32:52.941Z,79.13
2018-12-29T14:35:20.161Z,78.98
2018-12-29T14:37:47.334Z,79.03
2018-12-29T14:40:42.113Z,79.41
2018-12-29T14:43:09.323Z,78.82
2018-12-29T14:48:36.617Z,78.97
2018-12-29T14:51:04.177Z,79.61
2018-12-29T14:53:33.185Z,80.16
2018-12-29T14:56:08.616Z,80.13
2018-12-29T14:58:35.825Z,80.36
2018-12-29T15:01:02.991Z,80.09
2018-12-29T15:03:30.566Z,80.31
2018-12-29T15:05:57.684Z,79.43
2018-12-29T15:08:24.863Z,79.13
2018-12-29T15:10:52.105Z,79.95
2018-12-29T15:13:40.952Z,79.94
2018-12-29T15:16:27.939Z,80.35
2018-12-29T15:19:14.577Z,80.67
2018-12-29T15:22:01.334Z,80.34
2018-12-29T15:24:48.686Z,80.75
2018-12-29T15:27:16.172Z,80.99
2018-12-29T15:29:43.387Z,81.10
2018-12-29T15:32:32.250Z,81.28
2018-12-29T15:35:07.541Z,81.37
2018-12-29T15:37:54.513Z,81.75
2018-12-29T15:40:41.141Z,81.74
2018-12-29T15:43:49.209Z,81.26
2018-12-29T15:49:37.696Z,81.10
2018-12-29T15:52:04.897Z,81.08
2018-12-29T15:55:02.971Z,81.46
2018-12-29T16:01:14.582Z,81.82
2018-12-29T16:10:16.249Z,81.95
2018-12-29T16:12:43.802Z,81.59
2018-12-29T16:15:38.727Z,81.86
2018-12-29T16:18:05.831Z,82.14
2018-12-29T16:20:32.955Z,81.85
2018-12-29T16:23:00.160Z,81.94
2018-12-29T16:25:27.340Z,82.09
2018-12-29T16:27:54.559Z,81.99
2018-12-29T16:30:43.451Z,81.99
2018-12-29T16:33:10.528Z,81.65
2018-12-29T16:35:57.132Z,81.95
2018-12-29T16:38:24.332Z,82.13
2018-12-29T16:40:57.852Z,82.07
2018-12-29T16:43:49.778Z,82.48
2018-12-29T16:46:17.457Z,82.65
2018-12-29T16:49:25.492Z,82.68
2018-12-29T16:51:52.603Z,82.20
2018-12-29T16:54:39.393Z,82.27
2018-12-29T16:57:07.109Z,82.25
2018-12-29T16:59:34.830Z,82.60
2018-12-29T17:10:43.137Z,82.78
2018-12-29T17:13:10.849Z,82.33
2018-12-29T17:15:38.953Z,82.38
2018-12-29T17:18:06.674Z,82.23
2018-12-29T17:20:54.181Z,81.78
2018-12-29T17:23:40.936Z,81.70
2018-12-29T17:26:08.332Z,81.65
2018-12-29T17:29:03.232Z,82.04
2018-12-29T17:31:30.459Z,82.31
2018-12-29T17:34:06.026Z,81.43
2018-12-29T17:36:33.270Z,80.90
2018-12-29T17:39:00.495Z,81.11
2018-12-29T17:41:27.820Z,81.48
2018-12-29T17:43:55.050Z,81.37
2018-12-29T17:46:22.260Z,80.85
2018-12-29T17:48:49.658Z,80.81
2018-12-29T17:51:17.355Z,80.95
2018-12-29T17:53:48.097Z,81.22
2018-12-29T17:56:23.764Z,81.13
2018-12-29T17:59:10.491Z,81.29
2018-12-29T18:04:37.030Z,82.42
2018-12-29T18:07:04.212Z,82.18
2018-12-29T18:09:57.150Z,82.44
2018-12-29T18:12:26.683Z,83.22
2018-12-29T18:14:53.951Z,83.87
2018-12-29T18:17:21.154Z,83.66
2018-12-29T18:19:48.429Z,83.78
2018-12-29T18:22:15.675Z,84.52
2018-12-29T18:24:42.859Z,84.72
2018-12-29T18:27:22.737Z,84.52
2018-12-29T18:29:50.581Z,84.71
2018-12-29T18:32:18.157Z,84.83
2018-12-29T18:34:45.386Z,84.56
2018-12-29T18:37:34.220Z,84.76
2018-12-29T18:40:23.884Z,84.50
2018-12-29T18:42:51.088Z,84.48
2018-12-29T18:45:59.001Z,84.07
2018-12-29T18:51:38.620Z,83.35
2018-12-29T18:54:05.843Z,83.30
2018-12-29T18:57:00.629Z,83.00
2018-12-29T18:59:27.826Z,83.04
2018-12-29T19:02:16.702Z,83.40
2018-12-29T19:04:43.908Z,83.91
2018-12-29T19:07:11.087Z,84.21
2018-12-29T19:09:38.319Z,84.26
2018-12-29T19:12:24.951Z,84.22
2018-12-29T19:17:32.315Z,84.55
2018-12-29T19:20:21.463Z,84.47
2018-12-29T19:23:08.176Z,84.08
2018-12-29T19:25:35.786Z,83.39
2018-12-29T19:28:12.116Z,82.85
2018-12-29T19:30:39.322Z,82.86
2018-12-29T19:35:54.813Z,84.06
2018-12-29T19:39:04.077Z,84.48
2018-12-29T19:41:55.057Z,84.39
2018-12-29T19:44:41.426Z,84.02
2018-12-29T19:47:40.152Z,83.87
2018-12-29T19:50:14.416Z,83.56
2018-12-29T19:52:42.115Z,83.40
2018-12-29T19:55:09.659Z,82.50
2018-12-29T19:57:37.251Z,82.66
2018-12-29T20:00:46.010Z,83.10
2018-12-29T20:03:21.852Z,83.28
2018-12-29T20:06:00.472Z,82.68
2018-12-29T20:08:59.126Z,82.57
2018-12-29T20:11:45.833Z,82.10
2018-12-29T20:14:13.288Z,81.97
2018-12-29T20:16:40.821Z,82.27
2018-12-29T20:19:08.457Z,82.47
2018-12-29T20:21:55.540Z,82.46
2018-12-29T20:24:22.990Z,82.01
2018-12-29T20:26:50.172Z,81.57
2018-12-29T20:29:17.375Z,81.28
2018-12-29T20:37:46.902Z,82.34
2018-12-29T20:40:14.070Z,82.07
2018-12-29T20:42:41.612Z,82.04
2018-12-29T20:45:49.530Z,82.18
2018-12-29T20:48:16.628Z,82.41
2018-12-29T20:51:24.626Z,82.63
2018-12-29T20:53:52.262Z,82.57
2018-12-29T20:56:19.444Z,81.55
2018-12-29T21:02:00.036Z,81.65
2018-12-29T21:08:00.728Z,81.86
2018-12-29T21:10:27.933Z,82.06
2018-12-29T21:12:55.018Z,81.87
2018-12-29T21:15:33.757Z,81.91
2018-12-29T21:21:34.613Z,81.54
2018-12-29T21:24:02.189Z,81.83
2018-12-29T21:26:29.445Z,81.59
2018-12-29T21:29:16.563Z,81.42
2018-12-29T21:32:03.233Z,81.15
2018-12-29T21:34:30.465Z,81.14
2018-12-29T21:37:19.815Z,80.63
2018-12-29T21:39:47.814Z,80.81
2018-12-29T21:42:15.035Z,80.79
2018-12-29T21:44:42.268Z,80.77
2018-12-29T21:47:31.221Z,80.96
2018-12-29T21:49:58.429Z,80.92
2018-12-29T21:52:45.116Z,80.16
2018-12-29T21:55:12.574Z,80.26
2018-12-29T21:57:39.771Z,80.28
2018-12-29T22:00:48.124Z,80.29
2018-12-29T22:03:15.190Z,79.91
2018-12-29T22:06:02.030Z,80.30
2018-12-29T22:12:03.083Z,80.24
2018-12-29T22:14:38.637Z,80.74
2018-12-29T22:17:17.740Z,80.95
2018-12-29T22:19:44.936Z,81.02
2018-12-29T22:22:31.703Z,80.71
2018-12-29T22:24:58.947Z,80.61
2018-12-29T22:28:06.964Z,80.84
2018-12-29T22:30:34.180Z,80.07
2018-12-29T22:33:01.382Z,79.84
2018-12-29T22:38:29.484Z,80.26
2018-12-29T22:40:57.085Z,79.84
2018-12-29T22:43:43.768Z,80.36
2018-12-29T22:46:10.939Z,80.55
2018-12-29T22:48:38.136Z,80.25
2018-12-29T22:51:05.675Z,80.70
2018-12-29T22:53:32.883Z,80.25
2018-12-29T22:56:00.092Z,79.73
2018-12-29T23:04:09.108Z,80.34
2018-12-29T23:06:38.126Z,80.28
2018-12-29T23:09:17.255Z,80.38
2018-12-29T23:11:44.459Z,80.69
2018-12-29T23:14:11.643Z,80.70
2018-12-29T23:16:50.796Z,80.99
2018-12-29T23:19:17.974Z,81.09
2018-12-29T23:22:04.761Z,80.22
2018-12-29T23:27:52.249Z,79.96
2018-12-29T23:30:19.809Z,80.15
2018-12-29T23:33:30.190Z,80.48
2018-12-29T23:39:09.786Z,80.47
2018-12-29T23:47:39.283Z,80.69
2018-12-29T23:53:08.410Z,80.46
2018-12-29T23:56:06.513Z,79.44
2018-12-29T23:58:33.757Z,79.68
